createdAt,value
2022-08-30T00:01:08.294Z,6.80
2022-08-30T00:03:28.301Z,7.10
2022-08-30T00:05:42.299Z,4.70
2022-08-30T00:07:55.496Z,9.20
2022-08-30T00:10:09.530Z,12.00
2022-08-30T00:12:23.259Z,7.70
2022-08-30T00:14:36.289Z,5.30
2022-08-30T00:16:49.963Z,6.80
2022-08-30T00:19:03.683Z,5.10
2022-08-30T00:21:16.965Z,2.60
2022-08-30T00:23:30.182Z,4.80
2022-08-30T00:25:43.254Z,6.10
2022-08-30T00:27:57.123Z,6.80
2022-08-30T00:30:11.377Z,4.10
2022-08-30T00:32:24.421Z,3.20
2022-08-30T00:34:37.639Z,5.70
2022-08-30T00:36:50.892Z,4.80
2022-08-30T00:39:04.885Z,5.90
2022-08-30T00:41:18.066Z,3.50
2022-08-30T00:43:36.787Z,3.80
2022-08-30T00:45:50.448Z,8.30
2022-08-30T00:48:04.198Z,8.60
2022-08-30T00:50:19.654Z,5.40
2022-08-30T00:52:32.733Z,4.80
2022-08-30T00:54:47.852Z,5.10
2022-08-30T00:57:01.069Z,5.10
2022-08-30T00:59:14.799Z,3.00
2022-08-30T01:01:28.364Z,5.90
2022-08-30T01:03:45.005Z,5.40
2022-08-30T01:05:59.853Z,3.50
2022-08-30T01:08:13.848Z,1.80
2022-08-30T01:10:26.975Z,3.60
2022-08-30T01:12:40.901Z,6.50
2022-08-30T01:14:53.899Z,6.00
2022-08-30T01:17:08.586Z,3.50
2022-08-30T01:19:32.376Z,3.70
2022-08-30T01:21:51.205Z,4.90
2022-08-30T01:24:05.544Z,3.90
2022-08-30T01:26:21.980Z,7.80
2022-08-30T01:28:37.015Z,3.40
2022-08-30T01:30:50.848Z,4.90
2022-08-30T01:33:07.593Z,3.60
2022-08-30T01:35:22.487Z,4.70
2022-08-30T01:37:38.906Z,5.20
2022-08-30T01:39:52.854Z,4.30
2022-08-30T01:42:07.060Z,5.50
2022-08-30T01:44:20.511Z,8.10
2022-08-30T01:46:37.245Z,5.10
2022-08-30T01:48:54.002Z,5.10
2022-08-30T01:51:07.820Z,5.90
2022-08-30T01:53:20.859Z,4.30
2022-08-30T01:55:33.991Z,6.60
2022-08-30T01:57:48.220Z,7.40
2022-08-30T02:00:01.269Z,8.00
2022-08-30T02:02:27.066Z,8.50
2022-08-30T02:04:39.988Z,6.10
2022-08-30T02:06:53.003Z,6.30
2022-08-30T02:09:06.375Z,6.60
2022-08-30T02:11:20.646Z,4.30
2022-08-30T02:13:34.070Z,3.30
2022-08-30T02:15:47.072Z,6.90
2022-08-30T02:18:00.171Z,7.00
2022-08-30T02:20:15.674Z,6.60
2022-08-30T02:22:28.649Z,6.90
2022-08-30T02:24:41.757Z,5.40
2022-08-30T02:26:55.420Z,5.60
2022-08-30T02:29:08.535Z,4.60
2022-08-30T02:31:21.808Z,6.80
2022-08-30T02:33:34.877Z,6.90
2022-08-30T02:35:48.239Z,6.60
2022-08-30T02:38:01.618Z,4.00
2022-08-30T02:40:16.203Z,20.70
2022-08-30T02:42:29.220Z,6.00
2022-08-30T02:44:42.233Z,8.30
2022-08-30T02:46:55.242Z,4.50
2022-08-30T02:49:32.210Z,7.80
2022-08-30T02:51:43.038Z,6.00
2022-08-30T02:53:56.052Z,6.20
2022-08-30T02:56:09.560Z,7.80
2022-08-30T02:58:22.610Z,6.90
2022-08-30T03:00:36.066Z,10.90
2022-08-30T03:02:48.928Z,5.30
2022-08-30T03:05:02.009Z,8.10
2022-08-30T03:07:15.644Z,9.90
2022-08-30T03:09:28.738Z,6.60
2022-08-30T03:11:43.870Z,11.20
2022-08-30T03:13:56.944Z,9.00
2022-08-30T03:16:10.354Z,8.90
2022-08-30T03:18:24.286Z,6.10
2022-08-30T03:20:38.171Z,8.30
2022-08-30T03:22:51.450Z,7.80
2022-08-30T03:25:04.462Z,8.00
2022-08-30T03:27:18.212Z,9.20
2022-08-30T03:29:32.137Z,8.80
2022-08-30T03:31:53.576Z,7.10
2022-08-30T03:34:07.008Z,10.00
2022-08-30T03:36:20.127Z,8.00
2022-08-30T03:38:33.146Z,13.80
2022-08-30T03:40:46.323Z,9.20
2022-08-30T03:42:59.838Z,13.00
2022-08-30T03:45:15.775Z,17.40
2022-08-30T03:47:28.822Z,9.70
2022-08-30T03:49:42.267Z,7.50
2022-08-30T03:51:55.346Z,9.10
2022-08-30T03:54:08.361Z,15.20
2022-08-30T03:56:22.368Z,10.20
2022-08-30T03:58:35.684Z,7.90
2022-08-30T04:00:48.927Z,10.20
2022-08-30T04:03:02.044Z,7.50
2022-08-30T04:05:18.579Z,8.30
2022-08-30T04:07:31.969Z,8.10
2022-08-30T04:09:45.045Z,6.80
2022-08-30T04:11:58.329Z,5.20
2022-08-30T04:14:11.430Z,56.50
2022-08-30T04:16:24.779Z,77.50
2022-08-30T04:18:37.859Z,83.60
2022-08-30T04:20:50.822Z,76.40
2022-08-30T04:23:03.794Z,75.40
2022-08-30T04:25:17.496Z,68.30
2022-08-30T04:27:30.513Z,60.00
2022-08-30T04:29:43.454Z,48.30
2022-08-30T04:31:56.598Z,46.40
2022-08-30T04:34:09.675Z,48.00
2022-08-30T04:36:22.690Z,49.40
2022-08-30T04:38:36.290Z,40.00
2022-08-30T04:40:53.235Z,53.90
2022-08-30T04:43:06.570Z,40.60
2022-08-30T04:45:20.489Z,66.10
2022-08-30T04:47:33.560Z,46.40
2022-08-30T04:49:46.613Z,50.00
2022-08-30T04:51:59.643Z,49.10
2022-08-30T04:54:13.451Z,53.00
2022-08-30T04:56:27.669Z,62.90
2022-08-30T04:58:41.245Z,62.80
2022-08-30T05:00:54.507Z,55.10
2022-08-30T05:03:07.902Z,48.80
2022-08-30T05:05:37.804Z,50.80
2022-08-30T05:07:50.753Z,50.90
2022-08-30T05:10:05.850Z,51.60
2022-08-30T05:12:22.169Z,46.00
2022-08-30T05:14:35.732Z,49.10
2022-08-30T05:16:49.339Z,51.60
2022-08-30T05:19:02.488Z,66.50
2022-08-30T05:21:17.567Z,62.00
2022-08-30T05:23:30.589Z,52.30
2022-08-30T05:25:47.262Z,55.70
2022-08-30T05:28:00.714Z,67.00
2022-08-30T05:30:15.848Z,60.50
2022-08-30T05:32:29.035Z,69.30
2022-08-30T05:34:42.329Z,81.40
2022-08-30T05:36:55.774Z,152.20
2022-08-30T05:39:09.797Z,198.10
2022-08-30T05:41:26.430Z,215.80
2022-08-30T05:43:39.826Z,213.20
2022-08-30T05:46:01.391Z,246.40
2022-08-30T05:48:14.530Z,203.80
2022-08-30T05:50:27.623Z,203.20
2022-08-30T05:52:40.917Z,219.50
2022-08-30T05:55:00.388Z,203.70
2022-08-30T05:57:13.748Z,171.90
2022-08-30T05:59:26.751Z,214.10
2022-08-30T06:01:42.598Z,147.30
2022-08-30T06:03:57.587Z,155.30
2022-08-30T06:06:15.529Z,188.00
2022-08-30T06:08:29.015Z,161.50
2022-08-30T06:10:42.172Z,165.40
2022-08-30T06:12:55.334Z,183.00
2022-08-30T06:15:08.903Z,186.00
2022-08-30T06:17:21.899Z,164.90
2022-08-30T06:19:34.987Z,182.20
2022-08-30T06:21:51.249Z,183.60
2022-08-30T06:24:04.676Z,166.60
2022-08-30T06:26:17.853Z,200.00
2022-08-30T06:28:30.831Z,191.40
2022-08-30T06:30:47.112Z,220.00
2022-08-30T06:33:00.492Z,198.10
2022-08-30T06:35:15.400Z,193.60
2022-08-30T06:37:30.075Z,162.70
2022-08-30T06:39:43.426Z,155.20
2022-08-30T06:41:56.841Z,138.30
2022-08-30T06:44:12.838Z,138.40
2022-08-30T06:46:28.067Z,94.70
2022-08-30T06:48:43.022Z,115.90
2022-08-30T06:51:01.914Z,106.10
2022-08-30T06:53:16.117Z,79.30
2022-08-30T06:55:30.392Z,84.50
2022-08-30T06:57:43.411Z,128.90
2022-08-30T06:59:58.269Z,86.50
2022-08-30T07:02:11.596Z,99.20
2022-08-30T07:04:24.712Z,94.80
2022-08-30T07:06:39.024Z,136.10
2022-08-30T07:08:56.194Z,161.20
2022-08-30T07:11:10.521Z,172.70
2022-08-30T07:13:23.634Z,300.70
2022-08-30T07:15:38.399Z,296.90
2022-08-30T07:18:16.762Z,301.00
2022-08-30T07:20:40.437Z,285.00
2022-08-30T07:22:54.075Z,340.60
2022-08-30T07:25:07.261Z,368.30
2022-08-30T07:27:20.640Z,358.60
2022-08-30T07:29:33.773Z,355.10
2022-08-30T07:31:46.755Z,344.30
2022-08-30T07:34:00.373Z,366.60
2022-08-30T07:36:15.289Z,303.20
2022-08-30T07:38:28.771Z,329.00
2022-08-30T07:40:44.201Z,343.00
2022-08-30T07:42:57.398Z,309.10
2022-08-30T07:45:11.255Z,302.20
2022-08-30T07:47:24.337Z,292.30
2022-08-30T07:49:37.784Z,232.50
2022-08-30T07:51:50.929Z,201.10
2022-08-30T07:54:03.999Z,127.60
2022-08-30T07:56:17.212Z,115.70
2022-08-30T07:58:30.857Z,159.90
2022-08-30T08:00:43.856Z,240.20
2022-08-30T08:02:56.754Z,331.20
2022-08-30T08:05:16.466Z,409.70
2022-08-30T08:07:30.349Z,408.70
2022-08-30T08:09:43.643Z,407.70
2022-08-30T08:11:56.646Z,403.20
2022-08-30T08:14:10.644Z,383.90
2022-08-30T08:16:24.051Z,359.30
2022-08-30T08:18:37.273Z,331.40
2022-08-30T08:20:50.243Z,317.50
2022-08-30T08:23:07.403Z,330.30
2022-08-30T08:25:20.473Z,322.50
2022-08-30T08:27:33.636Z,307.90
2022-08-30T08:29:46.649Z,261.00
2022-08-30T08:32:01.377Z,292.30
2022-08-30T08:34:14.750Z,265.40
2022-08-30T08:36:27.882Z,283.20
2022-08-30T08:38:40.861Z,267.90
2022-08-30T08:41:06.302Z,267.80
2022-08-30T08:43:22.600Z,343.70
2022-08-30T08:45:46.600Z,441.30
2022-08-30T08:48:04.950Z,450.60
2022-08-30T08:50:23.982Z,438.80
2022-08-30T08:53:04.959Z,442.00
2022-08-30T08:55:22.150Z,430.90
2022-08-30T08:57:40.423Z,414.30
2022-08-30T08:59:55.510Z,398.60
2022-08-30T09:02:22.919Z,381.60
2022-08-30T09:04:39.961Z,395.50
2022-08-30T09:06:57.833Z,340.00
2022-08-30T09:09:11.626Z,362.10
2022-08-30T09:11:29.768Z,331.60
2022-08-30T09:13:42.769Z,327.70
2022-08-30T09:15:57.473Z,300.10
2022-08-30T09:18:19.618Z,256.00
2022-08-30T09:20:37.414Z,214.90
2022-08-30T09:22:50.652Z,199.60
2022-08-30T09:25:08.259Z,180.20
2022-08-30T09:27:31.627Z,181.60
2022-08-30T09:29:59.192Z,162.60
2022-08-30T09:32:25.113Z,148.60
2022-08-30T09:34:39.358Z,92.70
2022-08-30T09:36:53.531Z,93.80
2022-08-30T09:39:17.475Z,81.10
2022-08-30T09:41:45.641Z,75.30
2022-08-30T09:44:17.921Z,69.70
2022-08-30T09:46:32.375Z,57.90
2022-08-30T09:48:47.103Z,70.60
2022-08-30T09:51:15.729Z,55.50
2022-08-30T09:53:36.709Z,52.60
2022-08-30T09:56:06.934Z,116.60
2022-08-30T09:58:31.503Z,278.40
2022-08-30T10:00:50.891Z,525.30
2022-08-30T10:03:13.504Z,499.40
2022-08-30T10:05:34.880Z,443.80
2022-08-30T10:07:57.786Z,436.20
2022-08-30T10:10:17.935Z,418.10
2022-08-30T10:12:40.989Z,433.60
2022-08-30T10:15:01.159Z,466.60
2022-08-30T10:17:26.979Z,452.50
2022-08-30T10:19:54.612Z,445.10
2022-08-30T10:22:14.584Z,398.40
2022-08-30T10:24:33.658Z,406.90
2022-08-30T10:26:53.877Z,393.70
2022-08-30T10:29:12.080Z,376.80
2022-08-30T10:31:32.316Z,365.80
2022-08-30T10:33:49.054Z,359.70
2022-08-30T10:36:06.043Z,351.00
2022-08-30T10:38:27.106Z,328.70
2022-08-30T10:41:00.473Z,312.60
2022-08-30T10:43:18.519Z,271.90
2022-08-30T10:45:35.437Z,285.00
2022-08-30T10:47:53.293Z,278.80
2022-08-30T10:50:13.814Z,225.70
2022-08-30T10:52:34.686Z,227.90
2022-08-30T10:54:53.983Z,194.70
2022-08-30T10:57:07.309Z,177.50
2022-08-30T10:59:23.759Z,289.00
2022-08-30T11:01:53.285Z,247.30
2022-08-30T11:04:31.880Z,409.00
2022-08-30T11:06:54.957Z,432.30
2022-08-30T11:09:25.394Z,445.80
2022-08-30T11:11:50.309Z,419.00
2022-08-30T11:14:05.835Z,370.90
2022-08-30T11:16:21.263Z,344.30
2022-08-30T11:18:36.808Z,284.10
2022-08-30T11:20:52.126Z,255.30
2022-08-30T11:23:37.456Z,207.50
2022-08-30T11:25:59.279Z,166.30
2022-08-30T11:28:12.512Z,111.10
2022-08-30T11:31:06.859Z,82.70
2022-08-30T11:33:45.018Z,67.00
2022-08-30T11:35:59.656Z,51.60
2022-08-30T11:38:44.289Z,40.90
2022-08-30T11:41:11.810Z,31.80
2022-08-30T11:43:57.250Z,30.60
2022-08-30T11:46:25.558Z,33.10
2022-08-30T11:48:54.190Z,32.70
2022-08-30T11:51:14.128Z,28.50
2022-08-30T11:53:35.089Z,36.60
2022-08-30T11:56:05.444Z,183.80
2022-08-30T11:58:29.136Z,243.50
2022-08-30T12:00:50.309Z,282.20
2022-08-30T12:03:08.525Z,170.20
2022-08-30T12:05:51.327Z,91.00
2022-08-30T12:08:06.488Z,37.10
2022-08-30T12:10:40.092Z,26.00
2022-08-30T12:12:57.562Z,16.90
2022-08-30T12:15:11.104Z,16.40
2022-08-30T12:17:48.271Z,15.70
2022-08-30T12:20:02.896Z,28.40
2022-08-30T12:22:22.680Z,209.90
2022-08-30T12:24:41.313Z,495.20
2022-08-30T12:26:55.441Z,467.20
2022-08-30T12:29:21.682Z,447.80
2022-08-30T12:31:35.101Z,452.00
2022-08-30T12:33:51.898Z,420.10
2022-08-30T12:36:05.125Z,411.30
2022-08-30T12:38:28.095Z,402.10
2022-08-30T12:40:41.141Z,356.00
2022-08-30T12:42:59.226Z,361.10
2022-08-30T12:45:18.082Z,349.70
2022-08-30T12:47:35.826Z,281.20
2022-08-30T12:49:50.030Z,304.80
2022-08-30T12:52:24.130Z,233.10
2022-08-30T12:54:37.483Z,212.30
2022-08-30T12:57:25.478Z,165.90
2022-08-30T12:59:59.667Z,117.20
2022-08-30T13:03:23.229Z,52.40
2022-08-30T13:04:53.738Z,30.30
2022-08-30T13:07:07.490Z,21.00
2022-08-30T13:09:32.671Z,12.60
2022-08-30T13:11:51.489Z,13.40
2022-08-30T13:14:30.926Z,13.10
2022-08-30T13:16:45.439Z,8.20
2022-08-30T13:19:18.906Z,8.50
2022-08-30T13:21:34.735Z,154.40
2022-08-30T13:23:47.991Z,176.30
2022-08-30T13:26:00.978Z,131.00
2022-08-30T13:28:14.130Z,80.70
2022-08-30T13:30:27.289Z,47.70
2022-08-30T13:32:40.537Z,31.80
2022-08-30T13:34:54.065Z,23.00
2022-08-30T13:37:44.236Z,37.10
2022-08-30T13:39:41.893Z,58.70
2022-08-30T13:42:31.693Z,54.60
2022-08-30T13:44:30.578Z,57.90
2022-08-30T13:46:53.040Z,63.30
2022-08-30T13:51:58.141Z,45.40
2022-08-30T13:54:19.832Z,54.70
2022-08-30T13:56:35.129Z,59.10
2022-08-30T13:58:48.026Z,49.80
2022-08-30T14:01:01.077Z,55.60
2022-08-30T14:03:13.978Z,45.90
2022-08-30T14:07:59.849Z,46.30
2022-08-30T14:12:58.854Z,46.00
2022-08-30T14:15:16.549Z,75.10
2022-08-30T14:17:31.587Z,164.20
2022-08-30T14:19:44.775Z,169.20
2022-08-30T14:21:57.775Z,174.20
2022-08-30T14:24:11.528Z,179.20
2022-08-30T14:26:32.954Z,151.90
2022-08-30T14:28:47.114Z,107.70
2022-08-30T14:31:04.968Z,104.50
2022-08-30T14:33:19.575Z,115.50
2022-08-30T14:35:32.428Z,124.50
2022-08-30T14:37:45.649Z,144.10
2022-08-30T14:39:58.752Z,184.90
2022-08-30T14:42:15.202Z,177.20
2022-08-30T14:44:54.737Z,151.80
2022-08-30T14:47:07.078Z,149.90
2022-08-30T14:49:20.539Z,130.90
2022-08-30T14:51:33.539Z,127.60
2022-08-30T14:53:46.958Z,124.50
2022-08-30T14:56:00.031Z,102.20
2022-08-30T14:58:13.634Z,90.50
2022-08-30T15:00:26.994Z,88.20
2022-08-30T15:02:40.203Z,77.90
2022-08-30T15:04:53.518Z,86.30
2022-08-30T15:07:10.501Z,70.60
2022-08-30T15:09:27.618Z,68.50
2022-08-30T15:11:41.113Z,72.40
2022-08-30T15:13:55.483Z,67.90
2022-08-30T15:16:12.825Z,82.20
2022-08-30T15:18:25.997Z,114.00
2022-08-30T15:20:38.994Z,90.50
2022-08-30T15:22:52.398Z,87.70
2022-08-30T15:25:05.483Z,97.30
2022-08-30T15:27:18.515Z,108.10
2022-08-30T15:29:32.085Z,104.40
2022-08-30T15:31:45.505Z,90.90
2022-08-30T15:34:03.446Z,81.70
2022-08-30T15:36:16.569Z,63.20
2022-08-30T15:38:29.899Z,58.90
2022-08-30T15:40:42.933Z,76.70
2022-08-30T15:42:56.877Z,77.80
2022-08-30T15:45:11.418Z,48.00
2022-08-30T15:47:25.825Z,42.00
2022-08-30T15:49:38.791Z,51.40
2022-08-30T15:51:54.196Z,92.60
2022-08-30T15:54:08.159Z,64.40
2022-08-30T15:56:21.566Z,40.70
2022-08-30T15:58:34.574Z,41.00
2022-08-30T16:00:47.690Z,47.20
2022-08-30T16:03:00.632Z,41.60
2022-08-30T16:05:14.555Z,27.10
2022-08-30T16:07:27.865Z,26.40
2022-08-30T16:09:41.278Z,19.20
2022-08-30T16:11:54.484Z,16.30
2022-08-30T16:14:08.646Z,36.90
2022-08-30T16:16:22.926Z,25.00
2022-08-30T16:18:36.323Z,24.60
2022-08-30T16:20:50.015Z,35.70
2022-08-30T16:23:03.968Z,77.70
2022-08-30T16:25:17.238Z,59.50
2022-08-30T16:27:31.432Z,52.40
2022-08-30T16:29:44.394Z,49.30
2022-08-30T16:31:57.384Z,46.20
2022-08-30T16:34:11.016Z,58.80
2022-08-30T16:36:24.110Z,40.70
2022-08-30T16:38:38.884Z,43.60
2022-08-30T16:40:53.301Z,60.70
2022-08-30T16:43:10.580Z,61.40
2022-08-30T16:45:24.925Z,48.80
2022-08-30T16:47:37.840Z,36.00
2022-08-30T16:49:51.800Z,43.80
2022-08-30T16:52:04.986Z,42.80
2022-08-30T16:54:18.643Z,34.20
2022-08-30T16:56:34.602Z,31.50
2022-08-30T16:58:48.588Z,27.90
2022-08-30T17:01:02.282Z,35.00
2022-08-30T17:03:16.711Z,45.10
2022-08-30T17:05:30.702Z,44.20
2022-08-30T17:07:44.859Z,23.30
2022-08-30T17:09:58.560Z,38.70
2022-08-30T17:12:12.241Z,37.30
2022-08-30T17:14:27.822Z,23.20
2022-08-30T17:17:00.318Z,20.50
2022-08-30T17:19:14.443Z,18.20
2022-08-30T17:21:27.710Z,13.00
2022-08-30T17:23:40.735Z,18.00
2022-08-30T17:25:58.122Z,21.70
2022-08-30T17:28:11.705Z,22.60
2022-08-30T17:30:25.179Z,20.40
2022-08-30T17:32:38.192Z,11.30
2022-08-30T17:34:53.240Z,12.40
2022-08-30T17:37:06.209Z,21.20
2022-08-30T17:39:19.546Z,30.10
2022-08-30T17:41:32.605Z,12.00
2022-08-30T17:43:45.994Z,20.00
2022-08-30T17:46:06.009Z,16.40
2022-08-30T17:48:19.435Z,24.70
2022-08-30T17:50:33.453Z,28.10
2022-08-30T17:52:46.626Z,25.40
2022-08-30T17:54:59.855Z,25.80
2022-08-30T17:57:14.281Z,20.70
2022-08-30T17:59:29.294Z,21.00
2022-08-30T18:01:46.191Z,28.60
2022-08-30T18:06:34.472Z,28.40
2022-08-30T18:08:47.749Z,27.40
2022-08-30T18:11:00.793Z,21.50
2022-08-30T18:13:13.737Z,31.00
2022-08-30T18:15:26.781Z,30.10
2022-08-30T18:17:40.008Z,38.60
2022-08-30T18:19:54.427Z,48.00
2022-08-30T18:22:09.137Z,27.60
2022-08-30T18:24:22.363Z,26.40
2022-08-30T18:26:36.632Z,30.70
2022-08-30T18:28:56.065Z,30.30
2022-08-30T18:31:09.509Z,12.40
2022-08-30T18:33:22.878Z,32.90
2022-08-30T18:35:36.462Z,33.50
2022-08-30T18:37:49.730Z,17.90
2022-08-30T18:40:09.689Z,10.10
2022-08-30T18:42:22.786Z,10.60
2022-08-30T18:44:35.772Z,12.60
2022-08-30T18:46:55.919Z,5.90
2022-08-30T18:49:12.365Z,9.00
2022-08-30T18:51:27.902Z,11.70
2022-08-30T18:53:41.086Z,3.40
2022-08-30T18:55:55.280Z,5.50
2022-08-30T18:58:09.214Z,4.40
2022-08-30T19:00:24.443Z,2.10
2022-08-30T19:02:37.511Z,5.30
2022-08-30T19:04:51.222Z,5.30
2022-08-30T19:07:04.340Z,3.70
2022-08-30T19:09:17.724Z,4.40
2022-08-30T19:11:30.826Z,13.40
2022-08-30T19:13:43.938Z,3.60
2022-08-30T19:15:57.342Z,4.10
2022-08-30T19:18:16.649Z,9.70
2022-08-30T19:20:31.057Z,6.50
2022-08-30T19:23:08.517Z,12.90
2022-08-30T19:25:20.492Z,10.80
2022-08-30T19:27:37.415Z,10.10
2022-08-30T19:32:26.400Z,10.60
2022-08-30T19:34:39.530Z,6.40
2022-08-30T19:36:53.415Z,7.60
2022-08-30T19:39:06.480Z,6.30
2022-08-30T19:41:19.740Z,5.40
2022-08-30T19:43:33.147Z,5.70
2022-08-30T19:45:46.238Z,3.70
2022-08-30T19:48:00.296Z,4.40
2022-08-30T19:50:14.675Z,6.30
2022-08-30T19:52:31.622Z,9.10
2022-08-30T19:54:44.839Z,13.00
2022-08-30T19:56:58.135Z,8.20
2022-08-30T19:59:13.474Z,9.60
2022-08-30T20:01:33.066Z,8.40
2022-08-30T20:03:48.294Z,4.30
2022-08-30T20:06:05.464Z,8.30
2022-08-30T20:08:18.989Z,7.60
2022-08-30T20:10:32.527Z,6.00
2022-08-30T20:12:49.231Z,7.00
2022-08-30T20:15:03.221Z,6.80
2022-08-30T20:17:16.497Z,9.20
2022-08-30T20:19:29.617Z,4.60
2022-08-30T20:21:42.969Z,3.10
2022-08-30T20:23:55.873Z,7.30
2022-08-30T20:24:26.767Z,29.30
2022-08-30T20:26:09.558Z,9.40
2022-08-30T20:28:23.370Z,5.30
2022-08-30T20:30:36.445Z,5.80
2022-08-30T20:32:49.806Z,7.50
2022-08-30T20:35:02.894Z,9.10
2022-08-30T20:37:16.269Z,5.30
2022-08-30T20:39:29.393Z,11.50
2022-08-30T20:41:44.439Z,8.20
2022-08-30T20:43:59.506Z,11.00
2022-08-30T20:46:16.261Z,12.50
2022-08-30T20:48:30.227Z,10.70
2022-08-30T20:50:44.210Z,16.10
2022-08-30T20:52:57.401Z,14.60
2022-08-30T20:55:12.749Z,11.60
2022-08-30T20:57:25.827Z,15.60
2022-08-30T20:59:39.607Z,13.90
2022-08-30T21:01:52.736Z,9.70
2022-08-30T21:04:08.567Z,10.70
2022-08-30T21:06:22.939Z,4.80
2022-08-30T21:08:35.988Z,7.50
2022-08-30T21:10:49.430Z,4.60
2022-08-30T21:13:02.402Z,2.80
2022-08-30T21:15:36.399Z,4.70
2022-08-30T21:17:51.982Z,5.60
2022-08-30T21:20:05.640Z,16.80
2022-08-30T21:22:18.602Z,13.40
2022-08-30T21:24:33.021Z,15.90
2022-08-30T21:26:46.807Z,20.10
2022-08-30T21:29:00.902Z,13.60
2022-08-30T21:31:18.153Z,8.80
2022-08-30T21:33:31.229Z,9.90
2022-08-30T21:36:00.788Z,12.80
2022-08-30T21:38:13.829Z,32.60
2022-08-30T21:40:27.439Z,21.90
2022-08-30T21:42:41.272Z,21.50
2022-08-30T21:44:54.301Z,15.30
2022-08-30T21:47:07.964Z,12.90
2022-08-30T21:49:22.594Z,19.90
2022-08-30T21:51:39.157Z,3.60
2022-08-30T21:53:52.206Z,15.80
2022-08-30T21:56:15.439Z,6.80
2022-08-30T21:58:31.494Z,8.10
2022-08-30T22:00:44.508Z,8.20
2022-08-30T22:02:57.736Z,11.70
2022-08-30T22:05:11.945Z,9.10
2022-08-30T22:07:27.199Z,13.00
2022-08-30T22:09:40.666Z,9.80
2022-08-30T22:11:54.734Z,11.10
2022-08-30T22:14:08.514Z,7.90
2022-08-30T22:16:21.941Z,10.30
2022-08-30T22:18:35.436Z,5.10
2022-08-30T22:20:48.515Z,5.00
2022-08-30T22:23:01.618Z,5.20
2022-08-30T22:25:16.771Z,3.20
2022-08-30T22:27:29.722Z,1.80
2022-08-30T22:29:42.994Z,5.80
2022-08-30T22:31:56.055Z,7.00
2022-08-30T22:34:09.613Z,14.70
2022-08-30T22:36:24.749Z,6.30
2022-08-30T22:38:45.667Z,2.60
2022-08-30T22:40:59.274Z,3.30
2022-08-30T22:43:13.248Z,8.50
2022-08-30T22:45:27.187Z,6.30
2022-08-30T22:47:40.328Z,18.10
2022-08-30T22:49:53.410Z,8.90
2022-08-30T22:52:06.673Z,6.90
2022-08-30T22:54:19.647Z,8.50
2022-08-30T22:56:33.870Z,7.90
2022-08-30T22:58:47.248Z,5.80
2022-08-30T23:01:00.323Z,11.10
2022-08-30T23:03:16.465Z,9.70
2022-08-30T23:05:30.078Z,9.50
2022-08-30T23:07:43.646Z,13.50
2022-08-30T23:09:56.655Z,7.70
2022-08-30T23:12:10.194Z,8.30
2022-08-30T23:14:23.191Z,8.10
2022-08-30T23:16:36.655Z,13.40
2022-08-30T23:18:51.073Z,17.20
2022-08-30T23:21:11.958Z,15.90
2022-08-30T23:23:41.178Z,16.40
2022-08-30T23:26:10.392Z,10.90
2022-08-30T23:28:40.762Z,17.70
2022-08-30T23:31:10.548Z,13.60
2022-08-30T23:33:39.906Z,11.60
2022-08-30T23:36:08.946Z,10.40
2022-08-30T23:38:38.311Z,7.80
2022-08-30T23:41:07.503Z,9.40
2022-08-30T23:43:36.602Z,16.80
2022-08-30T23:46:06.137Z,19.00
2022-08-30T23:48:35.547Z,15.80
2022-08-30T23:51:04.960Z,17.30
2022-08-30T23:53:34.372Z,18.40
2022-08-30T23:56:04.101Z,17.60
2022-08-30T23:58:33.300Z,18.60
